Silver Hannah — V7IB4 — position and weather

sailwx.info

Track history (hours):
 
Tides and Currents Weather Stations Pressure Air Temp Water Temp Dewpoint Dewpoint Depression Visibility Wind Speed Wind Dir Waves Ship Positions

Silver Hannah

Last reported at 2017-Oct-18 04:07 UTC. Time now 2017-Oct-18 20:15 UTC.
Position N 45°00' W 125°20'.

Length 183 m; draft 9.3 m.

Type: Tanker. MMSI: 538005911.

Date/timePositionNaut miles runAvg speedWind from/ knotsBaromVisibWave heightAir tempDewpointWater temp
2017-Oct-18 04:07N 45°00' W 125°20'110.7
2017-Oct-18 04:00N 45°02' W 125°20'613.1
2017-Oct-18 03:30N 45°08' W 125°20'713.1
2017-Oct-18 03:00N 45°15' W 125°20'712.9
2017-Oct-18 02:30N 45°21' W 125°20'913.4
2017-Oct-18 01:51N 45°30' W 125°20'513.3
2017-Oct-18 01:30N 45°35' W 125°20'712.8
2017-Oct-18 00:55N 45°42' W 125°20'612.8
2017-Oct-18 00:30N 45°47' W 125°20'612.9
2017-Oct-18 00:00N 45°54' W 125°20'913.0
2017-Oct-17 23:18N 46°03' W 125°20'413.2
2017-Oct-17 23:01N 46°07' W 125°20'713.0
2017-Oct-17 22:31N 46°13' W 125°20'713.1
2017-Oct-17 22:00N 46°20' W 125°20'612.9
2017-Oct-17 21:31N 46°26' W 125°20'713.2
2017-Oct-17 21:00N 46°33' W 125°20'713.5
2017-Oct-17 20:30N 46°40' W 125°20'713.4
2017-Oct-17 20:00N 46°46' W 125°20'713.4
2017-Oct-17 19:29N 46°53' W 125°20'713.7
2017-Oct-17 19:00N 46°60' W 125°20'7613.2
2017-Oct-17 13:16N 48°15' W 125°12'313.1
2017-Oct-17 13:00N 48°19' W 125°11'712.4
2017-Oct-17 12:29N 48°25' W 125°08'511.2
2017-Oct-17 12:00N 48°29' W 125°03'510.5
2017-Oct-17 11:30N 48°31' W 124°55'612.4
2017-Oct-17 11:00N 48°31' W 124°46'612.6
2017-Oct-17 10:30N 48°29' W 124°37'613.0
2017-Oct-17 10:00N 48°26' W 124°28'613.0
2017-Oct-17 09:30N 48°24' W 124°19'713.0
2017-Oct-17 09:00N 48°21' W 124°10'612.7
2017-Oct-17 08:30N 48°19' W 124°02'713.4
2017-Oct-17 08:00N 48°17' W 123°52'712.8
2017-Oct-17 07:27N 48°16' W 123°41'612.9
2017-Oct-17 07:00N 48°15' W 123°33'611.2
2017-Oct-17 06:30N 48°20' W 123°27'510.2
2017-Oct-17 06:00N 48°23' W 123°21'510.0
2017-Oct-17 05:31N 48°24' W 123°14'713.8
2017-Oct-17 05:00N 48°31' W 123°13'815.5
2017-Oct-17 04:30N 48°39' W 123°15'612.9
2017-Oct-17 04:00N 48°44' W 123°09'713.9
2017-Oct-17 03:30N 48°48' W 123°01'714.9
2017-Oct-17 03:00N 48°54' W 123°08'815.2
2017-Oct-17 02:30N 48°59' W 123°17'714.1
2017-Oct-17 02:00N 49°05' W 123°23'714.4
2017-Oct-17 01:30N 49°12' W 123°22'713.4
2017-Oct-17 01:00N 49°18' W 123°17'5 9.9
2017-Oct-17 00:30N 49°19' W 123°10'4 8.4
2017-Oct-17 00:00N 49°18' W 123°04'3 6.3
2017-Oct-16 23:30N 49°18' W 122°59'1 1.5
2017-Oct-16 23:00N 49°18' W 122°58'0 0.5
2017-Oct-16 22:25N 49°17' W 122°58'0 0.0
2017-Oct-16 21:58N 49°17' W 122°58'0 0.0
2017-Oct-16 21:25N 49°17' W 122°58'0 0.0
2017-Oct-16 20:52N 49°17' W 122°58'0 0.0
2017-Oct-16 20:19N 49°17' W 122°58'0 0.0
2017-Oct-16 19:58N 49°17' W 122°58'0 0.0
2017-Oct-16 19:28N 49°17' W 122°58'0 0.0
2017-Oct-16 18:49N 49°17' W 122°58'0 0.0
2017-Oct-16 18:28N 49°17' W 122°58'0 0.0
2017-Oct-16 17:55N 49°17' W 122°58'0 0.0
2017-Oct-16 17:28N 49°17' W 122°58'0 0.0
2017-Oct-16 16:55N 49°17' W 122°58'0 0.0
2017-Oct-16 16:25N 49°17' W 122°58'0 0.0
2017-Oct-16 15:58N 49°17' W 122°58'0 0.0
2017-Oct-16 15:28N 49°17' W 122°58'0 0.0
2017-Oct-16 14:55N 49°17' W 122°58'0 0.0
2017-Oct-16 14:28N 49°17' W 122°58'0 0.0
2017-Oct-16 13:28N 49°17' W 122°58'0 0.0
2017-Oct-16 12:58N 49°17' W 122°58'0 0.0
2017-Oct-16 12:28N 49°17' W 122°58'0 0.0
2017-Oct-16 11:55N 49°17' W 122°58'0 0.0
2017-Oct-16 11:28N 49°17' W 122°58'0 0.0
2017-Oct-16 10:58N 49°17' W 122°58'0 0.0
2017-Oct-16 10:28N 49°17' W 122°58'0 0.0
2017-Oct-16 09:58N 49°17' W 122°58'0 0.0
2017-Oct-16 09:25N 49°17' W 122°58'0 0.0
2017-Oct-16 08:55N 49°17' W 122°58'0 0.0
2017-Oct-16 08:28N 49°17' W 122°58'0 0.0
2017-Oct-16 07:55N 49°17' W 122°58'0 0.0
2017-Oct-16 07:25N 49°17' W 122°58'0 0.0
2017-Oct-16 06:55N 49°17' W 122°58'0 0.0
2017-Oct-16 06:23N 49°17' W 122°58'0 0.0
2017-Oct-16 05:59N 49°17' W 122°58'0 0.0
2017-Oct-16 05:29N 49°17' W 122°58'0 0.0
2017-Oct-16 04:59N 49°17' W 122°58'0 0.0
2017-Oct-16 04:29N 49°17' W 122°58'0 0.0
2017-Oct-16 03:59N 49°17' W 122°58'0 0.0
2017-Oct-16 03:29N 49°17' W 122°58'0 0.0
2017-Oct-16 02:59N 49°17' W 122°58'0 0.0
2017-Oct-16 02:29N 49°17' W 122°58'0 0.0
2017-Oct-16 01:59N 49°17' W 122°58'0 0.0
2017-Oct-16 01:29N 49°17' W 122°58'0 0.0
2017-Oct-16 00:59N 49°17' W 122°58'0 0.0
2017-Oct-16 00:29N 49°17' W 122°58'0 0.0
2017-Oct-15 23:59N 49°17' W 122°58'0 0.0
2017-Oct-15 23:29N 49°17' W 122°58'0 0.0
2017-Oct-15 22:59N 49°17' W 122°58'0 0.0
2017-Oct-15 22:26N 49°17' W 122°58'0 0.0
2017-Oct-15 21:59N 49°17' W 122°58'0 0.0
2017-Oct-15 21:26N 49°17' W 122°58'0 0.0
2017-Oct-15 20:59N 49°17' W 122°58'0 0.0
2017-Oct-15 20:29N 49°17' W 122°58'0 0.0
2017-Oct-15 19:59N 49°17' W 122°58'0 0.0
2017-Oct-15 19:26N 49°17' W 122°58'0 0.0
2017-Oct-15 18:59N 49°17' W 122°58'0 0.0
2017-Oct-15 18:29N 49°17' W 122°58'0 0.0
2017-Oct-15 17:59N 49°17' W 122°58'0 0.0
2017-Oct-15 17:29N 49°17' W 122°58'0 0.0
2017-Oct-15 16:59N 49°17' W 122°58'0 0.0
2017-Oct-15 16:29N 49°17' W 122°58'0 0.0
2017-Oct-15 15:59N 49°17' W 122°58'0 0.0
2017-Oct-15 15:23N 49°17' W 122°58'0 0.0
2017-Oct-15 14:59N 49°17' W 122°58'1 0.8
2017-Oct-15 14:00N 49°18' W 122°57'0 0.1
2017-Oct-15 13:27N 49°18' W 122°57'0 0.0
2017-Oct-15 13:00N 49°18' W 122°57'0 0.0
2017-Oct-15 12:30N 49°18' W 122°57'0 0.0
2017-Oct-15 12:00N 49°18' W 122°57'0 0.0
2017-Oct-15 11:30N 49°18' W 122°57'0 0.0
2017-Oct-15 10:57N 49°18' W 122°57'0 0.0
2017-Oct-15 10:27N 49°18' W 122°57'0 0.0
2017-Oct-15 09:57N 49°18' W 122°57'0 0.0
2017-Oct-15 09:30N 49°18' W 122°57'0 0.0
2017-Oct-15 09:00N 49°18' W 122°57'0 0.0
2017-Oct-15 08:30N 49°18' W 122°57'0 0.0
2017-Oct-15 07:57N 49°18' W 122°57'0 0.0
2017-Oct-15 07:27N 49°18' W 122°57'0 0.1
2017-Oct-15 07:00N 49°18' W 122°57'0 0.0
2017-Oct-15 06:30N 49°18' W 122°57'0 0.0
2017-Oct-15 06:00N 49°18' W 122°57'0 0.1
2017-Oct-15 05:30N 49°18' W 122°57'0 0.0
2017-Oct-15 05:00N 49°18' W 122°57'0 0.0
2017-Oct-15 04:30N 49°18' W 122°57'0 0.0
2017-Oct-15 04:00N 49°18' W 122°57'0 0.0
2017-Oct-15 03:30N 49°18' W 122°57'0 0.0
2017-Oct-15 03:00N 49°18' W 122°57'0 0.0
2017-Oct-15 02:30N 49°18' W 122°57'0 0.0
2017-Oct-15 02:00N 49°18' W 122°57'0 0.0
2017-Oct-15 01:30N 49°18' W 122°57'0 0.0
2017-Oct-15 01:00N 49°18' W 122°57'0 0.0
2017-Oct-15 00:30N 49°18' W 122°57'0 0.0
2017-Oct-15 00:00N 49°18' W 122°57'0 0.0
2017-Oct-14 23:30N 49°18' W 122°57'0 0.0
2017-Oct-14 23:00N 49°18' W 122°57'0 0.0
2017-Oct-14 22:30N 49°18' W 122°57'0 0.0
2017-Oct-14 22:00N 49°18' W 122°57'0 0.1
2017-Oct-14 21:27N 49°18' W 122°57'0 0.1
2017-Oct-14 21:00N 49°18' W 122°57'0 0.1
2017-Oct-14 20:30N 49°18' W 122°57'0 0.1
2017-Oct-14 20:00N 49°18' W 122°57'0 0.1
2017-Oct-14 19:30N 49°18' W 122°57'0 0.0
2017-Oct-14 19:00N 49°18' W 122°57'0 0.0
2017-Oct-14 18:27N 49°18' W 122°57'0 0.1
2017-Oct-14 17:57N 49°18' W 122°57'0 0.1
2017-Oct-14 17:30N 49°18' W 122°57'0 0.1
2017-Oct-14 16:54N 49°18' W 122°57'0 0.2
2017-Oct-14 16:24N 49°18' W 122°57'0 0.1
2017-Oct-14 16:01N 49°18' W 122°57'1 2.9
2017-Oct-14 15:30N 49°18' W 122°59'3 6.4
2017-Oct-14 15:00N 49°18' W 123°04'2 3.8
2017-Oct-14 14:31N 49°18' W 123°07'0 0.8
2017-Oct-14 13:59N 49°19' W 123°07'0 0.0
2017-Oct-14 13:30N 49°19' W 123°07'0 0.0
2017-Oct-14 12:59N 49°19' W 123°07'0 0.0
2017-Oct-14 12:29N 49°19' W 123°07'0 0.0
2017-Oct-14 11:59N 49°19' W 123°07'0 0.0
2017-Oct-14 11:27N 49°19' W 123°07'0 0.0
2017-Oct-14 10:59N 49°19' W 123°07'0 0.0
2017-Oct-14 10:30N 49°19' W 123°07'0 0.0
2017-Oct-14 09:59N 49°19' W 123°07'0 0.0
2017-Oct-14 09:26N 49°19' W 123°07'0 0.0
2017-Oct-14 09:00N 49°19' W 123°07'0 0.0
2017-Oct-14 08:29N 49°19' W 123°07'0 0.0
2017-Oct-14 07:59N 49°19' W 123°07'0 0.1
2017-Oct-14 07:29N 49°19' W 123°07'0 0.1
2017-Oct-14 06:59N 49°19' W 123°07'0 0.0
2017-Oct-14 06:29N 49°19' W 123°07'0 0.0
2017-Oct-14 05:53N 49°19' W 123°07'0 0.0
2017-Oct-14 05:29N 49°19' W 123°07'0 0.0
2017-Oct-14 04:59N 49°19' W 123°07'0 0.0
2017-Oct-14 04:29N 49°19' W 123°07'0 0.0
2017-Oct-14 03:56N 49°19' W 123°07'0 0.0
2017-Oct-14 03:29N 49°19' W 123°07'0 0.0
2017-Oct-14 02:59N 49°19' W 123°07'0 0.0
2017-Oct-14 02:29N 49°19' W 123°07'0 0.0
2017-Oct-14 01:53N 49°19' W 123°07'0 0.0
2017-Oct-14 01:30N 49°19' W 123°07'0 0.0
2017-Oct-13 23:17N 49°19' W 123°07'0 0.0
2017-Oct-13 22:41N 49°19' W 123°07'0 0.0
2017-Oct-13 22:17N 49°19' W 123°07'0 0.0
2017-Oct-13 22:00N 49°19' W 123°07'0 0.0
2017-Oct-13 21:23N 49°19' W 123°07'0 0.0
2017-Oct-13 20:54N 49°19' W 123°07'0 0.0
2017-Oct-13 20:29N 49°19' W 123°07'0 0.0
2017-Oct-13 19:47N 49°19' W 123°07'0 0.0
2017-Oct-13 19:29N 49°19' W 123°07'0 0.0
2017-Oct-13 18:59N 49°19' W 123°07'0 0.0
2017-Oct-13 18:29N 49°19' W 123°07'0 0.0
2017-Oct-13 17:59N 49°19' W 123°07'0 0.0
2017-Oct-13 17:29N 49°19' W 123°07'0 0.0
2017-Oct-13 17:00N 49°19' W 123°07'0 0.0
2017-Oct-13 16:29N 49°19' W 123°07'0 0.0
2017-Oct-13 15:59N 49°19' W 123°07'0 0.0
2017-Oct-13 15:29N 49°19' W 123°07'0 0.0
2017-Oct-13 14:53N 49°19' W 123°07'0 0.0
2017-Oct-13 14:26N 49°19' W 123°07'0 0.0
2017-Oct-13 13:57N 49°19' W 123°07'1 1.4
2017-Oct-13 13:30N 49°19' W 123°08'5 9.8
2017-Oct-13 13:00N 49°18' W 123°16'611.4
2017-Oct-13 12:30N 49°13' W 123°19'713.3
2017-Oct-13 12:00N 49°06' W 123°20'612.3
2017-Oct-13 11:30N 49°01' W 123°15'713.0
2017-Oct-13 11:00N 48°56' W 123°08'612.9
2017-Oct-13 10:30N 48°52' W 123°02'510.3
2017-Oct-13 10:01N 48°47' W 123°01'612.5
2017-Oct-13 09:30N 48°43' W 123°09'510.5
2017-Oct-13 09:00N 48°40' W 123°15'611.8
2017-Oct-13 08:30N 48°34' W 123°13'612.4
2017-Oct-13 08:01N 48°28' W 123°10'510.7
2017-Oct-13 07:30N 48°23' W 123°14'612.0
2017-Oct-13 07:01N 48°22' W 123°23'3 5.3
2017-Oct-13 06:31N 48°19' W 123°25'5 9.1
2017-Oct-13 06:01N 48°15' W 123°27'4 8.6
2017-Oct-13 05:30N 48°13' W 123°33'5 9.8
2017-Oct-13 05:00N 48°13' W 123°41'510.9
2017-Oct-13 04:30N 48°13' W 123°49'611.1
2017-Oct-13 04:00N 48°14' W 123°57'611.4
2017-Oct-13 03:29N 48°17' W 124°05'511.3
2017-Oct-13 03:00N 48°19' W 124°13'611.8
2017-Oct-13 02:30N 48°21' W 124°21'612.0
2017-Oct-13 02:00N 48°24' W 124°29'611.9
2017-Oct-13 01:30N 48°26' W 124°37'612.6
2017-Oct-13 01:00N 48°29' W 124°46'714.1
2017-Oct-13 00:29N 48°29' W 124°57'713.5
2017-Oct-12 23:59N 48°24' W 125°04'1014.5
2017-Oct-12 23:17N 48°15' W 125°11'414.5
2017-Oct-12 23:00N 48°12' W 125°15'58811.5
2017-Oct-10 19:53N 38°23' W 125°07'812.2
2017-Oct-10 19:14N 38°16' W 125°03'412.2
2017-Oct-10 18:56N 38°12' W 125°02'512.2
2017-Oct-10 18:30N 38°07' W 124°59'612.5
2017-Oct-10 18:00N 38°02' W 124°56'612.4
2017-Oct-10 17:30N 37°56' W 124°53'712.5
2017-Oct-10 16:55N 37°49' W 124°50'712.7
2017-Oct-10 16:22N 37°43' W 124°47'512.8
2017-Oct-10 15:59N 37°38' W 124°44'612.7
2017-Oct-10 15:30N 37°32' W 124°42'612.5
2017-Oct-10 15:00N 37°26' W 124°39'1312.8
2017-Oct-10 14:00N 37°15' W 124°33'612.8
2017-Oct-10 13:30N 37°09' W 124°30'912.7
2017-Oct-10 12:50N 37°01' W 124°26'412.9
2017-Oct-10 12:30N 36°57' W 124°24'6012.7
2017-Oct-10 07:47N 36°09' W 123°40'412.9
2017-Oct-10 07:26N 36°05' W 123°36'1012.5
2017-Oct-10 06:40N 35°58' W 123°29'1212.1
2017-Oct-10 05:38N 35°48' W 123°19'312.2
2017-Oct-10 05:25N 35°46' W 123°17'512.2
2017-Oct-10 05:00N 35°42' W 123°13'612.4
2017-Oct-10 04:30N 35°37' W 123°08'612.7
2017-Oct-10 04:00N 35°32' W 123°03'612.7
2017-Oct-10 03:30N 35°28' W 122°58'3812.5
2017-Oct-10 00:30N 34°58' W 122°29'912.7
2017-Oct-09 23:46N 34°51' W 122°22'413.0
2017-Oct-09 23:27N 34°49' W 122°18'613.2
2017-Oct-09 23:00N 34°47' W 122°12'713.7
2017-Oct-09 22:30N 34°44' W 122°04'713.8
2017-Oct-09 22:00N 34°43' W 121°56'713.4
2017-Oct-09 21:30N 34°41' W 121°48'713.4
2017-Oct-09 21:00N 34°39' W 121°40'713.5
2017-Oct-09 20:31N 34°37' W 121°32'613.0
2017-Oct-09 20:01N 34°35' W 121°25'613.0
2017-Oct-09 19:30N 34°33' W 121°17'713.2
2017-Oct-09 19:00N 34°31' W 121°10'713.4
2017-Oct-09 18:30N 34°29' W 121°02'713.3
2017-Oct-09 18:00N 34°27' W 120°54'713.7
2017-Oct-09 17:30N 34°25' W 120°46'713.7
2017-Oct-09 17:00N 34°23' W 120°38'714.1
2017-Oct-09 16:30N 34°21' W 120°30'713.7
2017-Oct-09 16:01N 34°20' W 120°22'714.2
2017-Oct-09 15:30N 34°18' W 120°13'714.7
2017-Oct-09 15:00N 34°16' W 120°05'714.7
2017-Oct-09 14:30N 34°14' W 119°56'714.2
2017-Oct-09 14:00N 34°12' W 119°48'914.5
2017-Oct-09 13:22N 34°09' W 119°37'514.8
2017-Oct-09 13:00N 34°08' W 119°31'814.5
2017-Oct-09 12:25N 34°06' W 119°21'613.3
2017-Oct-09 11:56N 34°04' W 119°14'611.7
2017-Oct-09 11:27N 34°01' W 119°08'1211.6
2017-Oct-09 10:23N 33°55' W 118°55'511.9
2017-Oct-09 10:00N 33°52' W 118°50'611.9
2017-Oct-09 09:30N 33°49' W 118°44'611.3
2017-Oct-09 09:00N 33°47' W 118°38'611.5
2017-Oct-09 08:28N 33°44' W 118°32'611.7
2017-Oct-09 07:59N 33°41' W 118°26'611.0
2017-Oct-09 07:26N 33°38' W 118°19'511.3
2017-Oct-09 06:58N 33°39' W 118°13'5 9.7
2017-Oct-09 06:30N 33°43' W 118°11'1 2.4
2017-Oct-09 06:00N 33°44' W 118°10'0 0.0
2017-Oct-09 05:30N 33°44' W 118°10'0 0.0
2017-Oct-09 05:00N 33°44' W 118°10'0 0.0
2017-Oct-09 04:30N 33°44' W 118°10'0 0.0
2017-Oct-09 03:54N 33°44' W 118°10'0 0.0
2017-Oct-09 03:30N 33°44' W 118°10'0 0.0
2017-Oct-09 03:00N 33°44' W 118°10'0 0.1
2017-Oct-09 02:30N 33°44' W 118°10'0 0.0
2017-Oct-09 02:00N 33°44' W 118°10'0 0.0
2017-Oct-09 01:30N 33°44' W 118°10'0 0.0
2017-Oct-09 01:00N 33°44' W 118°10'0 0.0
2017-Oct-09 00:30N 33°44' W 118°10'0 0.1
2017-Oct-08 23:57N 33°44' W 118°10'0 0.2
2017-Oct-08 23:30N 33°44' W 118°10'3 6.1
2017-Oct-08 23:00N 33°41' W 118°11'510.4
2017-Oct-08 22:30N 33°36' W 118°10'511.0
2017-Oct-08 22:00N 33°31' W 118°08'611.1
2017-Oct-08 21:30N 33°26' W 118°05'611.4
2017-Oct-08 21:00N 33°20' W 118°03'611.9
2017-Oct-08 20:30N 33°15' W 118°00'611.9
2017-Oct-08 20:00N 33°09' W 117°59'611.7
2017-Oct-08 19:30N 33°03' W 117°56'611.8
2017-Oct-08 19:00N 32°58' W 117°53'611.8
2017-Oct-08 18:30N 32°53' W 117°51'713.8
2017-Oct-08 18:00N 32°46' W 117°48'714.5
2017-Oct-08 17:30N 32°39' W 117°45'714.5
2017-Oct-08 17:00N 32°33' W 117°41'714.7
2017-Oct-08 16:30N 32°27' W 117°36'714.5
2017-Oct-08 16:00N 32°21' W 117°30'713.8
2017-Oct-08 15:30N 32°21' W 117°22'713.6
2017-Oct-08 15:00N 32°21' W 117°14'611.6
2017-Oct-08 14:31N 32°20' W 117°07'  
Track history (hours):
 
Tides and Currents Weather Stations Pressure Air Temp Water Temp Dewpoint Dewpoint Depression Visibility Wind Speed Wind Dir Waves Ship Positions

Silver Hannah

Last reported at 2017-Oct-18 04:07 UTC. Time now 2017-Oct-18 20:15 UTC.
Position N 45°00' W 125°20'.

Length 183 m; draft 9.3 m.

Type: Tanker. MMSI: 538005911.

Date/timePositionNaut miles runAvg speedWind from/ knotsBaromVisibWave heightAir tempDewpointWater temp
2017-Oct-18 04:07N 45°00' W 125°20'110.7
2017-Oct-18 04:00N 45°02' W 125°20'613.1
2017-Oct-18 03:30N 45°08' W 125°20'713.1
2017-Oct-18 03:00N 45°15' W 125°20'712.9
2017-Oct-18 02:30N 45°21' W 125°20'913.4
2017-Oct-18 01:51N 45°30' W 125°20'513.3
2017-Oct-18 01:30N 45°35' W 125°20'712.8
2017-Oct-18 00:55N 45°42' W 125°20'612.8
2017-Oct-18 00:30N 45°47' W 125°20'612.9
2017-Oct-18 00:00N 45°54' W 125°20'913.0
2017-Oct-17 23:18N 46°03' W 125°20'413.2
2017-Oct-17 23:01N 46°07' W 125°20'713.0
2017-Oct-17 22:31N 46°13' W 125°20'713.1
2017-Oct-17 22:00N 46°20' W 125°20'612.9
2017-Oct-17 21:31N 46°26' W 125°20'713.2
2017-Oct-17 21:00N 46°33' W 125°20'713.5
2017-Oct-17 20:30N 46°40' W 125°20'713.4
2017-Oct-17 20:00N 46°46' W 125°20'713.4
2017-Oct-17 19:29N 46°53' W 125°20'713.7
2017-Oct-17 19:00N 46°60' W 125°20'7613.2
2017-Oct-17 13:16N 48°15' W 125°12'313.1
2017-Oct-17 13:00N 48°19' W 125°11'712.4
2017-Oct-17 12:29N 48°25' W 125°08'511.2
2017-Oct-17 12:00N 48°29' W 125°03'510.5
2017-Oct-17 11:30N 48°31' W 124°55'612.4
2017-Oct-17 11:00N 48°31' W 124°46'612.6
2017-Oct-17 10:30N 48°29' W 124°37'613.0
2017-Oct-17 10:00N 48°26' W 124°28'613.0
2017-Oct-17 09:30N 48°24' W 124°19'713.0
2017-Oct-17 09:00N 48°21' W 124°10'612.7
2017-Oct-17 08:30N 48°19' W 124°02'713.4
2017-Oct-17 08:00N 48°17' W 123°52'712.8
2017-Oct-17 07:27N 48°16' W 123°41'612.9
2017-Oct-17 07:00N 48°15' W 123°33'611.2
2017-Oct-17 06:30N 48°20' W 123°27'510.2
2017-Oct-17 06:00N 48°23' W 123°21'510.0
2017-Oct-17 05:31N 48°24' W 123°14'713.8
2017-Oct-17 05:00N 48°31' W 123°13'815.5
2017-Oct-17 04:30N 48°39' W 123°15'612.9
2017-Oct-17 04:00N 48°44' W 123°09'713.9
2017-Oct-17 03:30N 48°48' W 123°01'714.9
2017-Oct-17 03:00N 48°54' W 123°08'815.2
2017-Oct-17 02:30N 48°59' W 123°17'714.1
2017-Oct-17 02:00N 49°05' W 123°23'714.4
2017-Oct-17 01:30N 49°12' W 123°22'713.4
2017-Oct-17 01:00N 49°18' W 123°17'5 9.9
2017-Oct-17 00:30N 49°19' W 123°10'4 8.4
2017-Oct-17 00:00N 49°18' W 123°04'3 6.3
2017-Oct-16 23:30N 49°18' W 122°59'1 1.5
2017-Oct-16 23:00N 49°18' W 122°58'0 0.5
2017-Oct-16 22:25N 49°17' W 122°58'0 0.0
2017-Oct-16 21:58N 49°17' W 122°58'0 0.0
2017-Oct-16 21:25N 49°17' W 122°58'0 0.0
2017-Oct-16 20:52N 49°17' W 122°58'0 0.0
2017-Oct-16 20:19N 49°17' W 122°58'0 0.0
2017-Oct-16 19:58N 49°17' W 122°58'0 0.0
2017-Oct-16 19:28N 49°17' W 122°58'0 0.0
2017-Oct-16 18:49N 49°17' W 122°58'0 0.0
2017-Oct-16 18:28N 49°17' W 122°58'0 0.0
2017-Oct-16 17:55N 49°17' W 122°58'0 0.0
2017-Oct-16 17:28N 49°17' W 122°58'0 0.0
2017-Oct-16 16:55N 49°17' W 122°58'0 0.0
2017-Oct-16 16:25N 49°17' W 122°58'0 0.0
2017-Oct-16 15:58N 49°17' W 122°58'0 0.0
2017-Oct-16 15:28N 49°17' W 122°58'0 0.0
2017-Oct-16 14:55N 49°17' W 122°58'0 0.0
2017-Oct-16 14:28N 49°17' W 122°58'0 0.0
2017-Oct-16 13:28N 49°17' W 122°58'0 0.0
2017-Oct-16 12:58N 49°17' W 122°58'0 0.0
2017-Oct-16 12:28N 49°17' W 122°58'0 0.0
2017-Oct-16 11:55N 49°17' W 122°58'0 0.0
2017-Oct-16 11:28N 49°17' W 122°58'0 0.0
2017-Oct-16 10:58N 49°17' W 122°58'0 0.0
2017-Oct-16 10:28N 49°17' W 122°58'0 0.0
2017-Oct-16 09:58N 49°17' W 122°58'0 0.0
2017-Oct-16 09:25N 49°17' W 122°58'0 0.0
2017-Oct-16 08:55N 49°17' W 122°58'0 0.0
2017-Oct-16 08:28N 49°17' W 122°58'0 0.0
2017-Oct-16 07:55N 49°17' W 122°58'0 0.0
2017-Oct-16 07:25N 49°17' W 122°58'0 0.0
2017-Oct-16 06:55N 49°17' W 122°58'0 0.0
2017-Oct-16 06:23N 49°17' W 122°58'0 0.0
2017-Oct-16 05:59N 49°17' W 122°58'0 0.0
2017-Oct-16 05:29N 49°17' W 122°58'0 0.0
2017-Oct-16 04:59N 49°17' W 122°58'0 0.0
2017-Oct-16 04:29N 49°17' W 122°58'0 0.0
2017-Oct-16 03:59N 49°17' W 122°58'0 0.0
2017-Oct-16 03:29N 49°17' W 122°58'0 0.0
2017-Oct-16 02:59N 49°17' W 122°58'0 0.0
2017-Oct-16 02:29N 49°17' W 122°58'0 0.0
2017-Oct-16 01:59N 49°17' W 122°58'0 0.0
2017-Oct-16 01:29N 49°17' W 122°58'0 0.0
2017-Oct-16 00:59N 49°17' W 122°58'0 0.0
2017-Oct-16 00:29N 49°17' W 122°58'0 0.0
2017-Oct-15 23:59N 49°17' W 122°58'0 0.0
2017-Oct-15 23:29N 49°17' W 122°58'0 0.0
2017-Oct-15 22:59N 49°17' W 122°58'0 0.0
2017-Oct-15 22:26N 49°17' W 122°58'0 0.0
2017-Oct-15 21:59N 49°17' W 122°58'0 0.0
2017-Oct-15 21:26N 49°17' W 122°58'0 0.0
2017-Oct-15 20:59N 49°17' W 122°58'0 0.0
2017-Oct-15 20:29N 49°17' W 122°58'0 0.0
2017-Oct-15 19:59N 49°17' W 122°58'0 0.0
2017-Oct-15 19:26N 49°17' W 122°58'0 0.0
2017-Oct-15 18:59N 49°17' W 122°58'0 0.0
2017-Oct-15 18:29N 49°17' W 122°58'0 0.0
2017-Oct-15 17:59N 49°17' W 122°58'0 0.0
2017-Oct-15 17:29N 49°17' W 122°58'0 0.0
2017-Oct-15 16:59N 49°17' W 122°58'0 0.0
2017-Oct-15 16:29N 49°17' W 122°58'0 0.0
2017-Oct-15 15:59N 49°17' W 122°58'0 0.0
2017-Oct-15 15:23N 49°17' W 122°58'0 0.0
2017-Oct-15 14:59N 49°17' W 122°58'1 0.8
2017-Oct-15 14:00N 49°18' W 122°57'0 0.1
2017-Oct-15 13:27N 49°18' W 122°57'0 0.0
2017-Oct-15 13:00N 49°18' W 122°57'0 0.0
2017-Oct-15 12:30N 49°18' W 122°57'0 0.0
2017-Oct-15 12:00N 49°18' W 122°57'0 0.0
2017-Oct-15 11:30N 49°18' W 122°57'0 0.0
2017-Oct-15 10:57N 49°18' W 122°57'0 0.0
2017-Oct-15 10:27N 49°18' W 122°57'0 0.0
2017-Oct-15 09:57N 49°18' W 122°57'0 0.0
2017-Oct-15 09:30N 49°18' W 122°57'0 0.0
2017-Oct-15 09:00N 49°18' W 122°57'0 0.0
2017-Oct-15 08:30N 49°18' W 122°57'0 0.0
2017-Oct-15 07:57N 49°18' W 122°57'0 0.0
2017-Oct-15 07:27N 49°18' W 122°57'0 0.1
2017-Oct-15 07:00N 49°18' W 122°57'0 0.0
2017-Oct-15 06:30N 49°18' W 122°57'0 0.0
2017-Oct-15 06:00N 49°18' W 122°57'0 0.1
2017-Oct-15 05:30N 49°18' W 122°57'0 0.0
2017-Oct-15 05:00N 49°18' W 122°57'0 0.0
2017-Oct-15 04:30N 49°18' W 122°57'0 0.0
2017-Oct-15 04:00N 49°18' W 122°57'0 0.0
2017-Oct-15 03:30N 49°18' W 122°57'0 0.0
2017-Oct-15 03:00N 49°18' W 122°57'0 0.0
2017-Oct-15 02:30N 49°18' W 122°57'0 0.0
2017-Oct-15 02:00N 49°18' W 122°57'0 0.0
2017-Oct-15 01:30N 49°18' W 122°57'0 0.0
2017-Oct-15 01:00N 49°18' W 122°57'0 0.0
2017-Oct-15 00:30N 49°18' W 122°57'0 0.0
2017-Oct-15 00:00N 49°18' W 122°57'0 0.0
2017-Oct-14 23:30N 49°18' W 122°57'0 0.0
2017-Oct-14 23:00N 49°18' W 122°57'0 0.0
2017-Oct-14 22:30N 49°18' W 122°57'0 0.0
2017-Oct-14 22:00N 49°18' W 122°57'0 0.1
2017-Oct-14 21:27N 49°18' W 122°57'0 0.1
2017-Oct-14 21:00N 49°18' W 122°57'0 0.1
2017-Oct-14 20:30N 49°18' W 122°57'0 0.1
2017-Oct-14 20:00N 49°18' W 122°57'0 0.1
2017-Oct-14 19:30N 49°18' W 122°57'0 0.0
2017-Oct-14 19:00N 49°18' W 122°57'0 0.0
2017-Oct-14 18:27N 49°18' W 122°57'0 0.1
2017-Oct-14 17:57N 49°18' W 122°57'0 0.1
2017-Oct-14 17:30N 49°18' W 122°57'0 0.1
2017-Oct-14 16:54N 49°18' W 122°57'0 0.2
2017-Oct-14 16:24N 49°18' W 122°57'0 0.1
2017-Oct-14 16:01N 49°18' W 122°57'1 2.9
2017-Oct-14 15:30N 49°18' W 122°59'3 6.4
2017-Oct-14 15:00N 49°18' W 123°04'2 3.8
2017-Oct-14 14:31N 49°18' W 123°07'0 0.8
2017-Oct-14 13:59N 49°19' W 123°07'0 0.0
2017-Oct-14 13:30N 49°19' W 123°07'0 0.0
2017-Oct-14 12:59N 49°19' W 123°07'0 0.0
2017-Oct-14 12:29N 49°19' W 123°07'0 0.0
2017-Oct-14 11:59N 49°19' W 123°07'0 0.0
2017-Oct-14 11:27N 49°19' W 123°07'0 0.0
2017-Oct-14 10:59N 49°19' W 123°07'0 0.0
2017-Oct-14 10:30N 49°19' W 123°07'0 0.0
2017-Oct-14 09:59N 49°19' W 123°07'0 0.0
2017-Oct-14 09:26N 49°19' W 123°07'0 0.0
2017-Oct-14 09:00N 49°19' W 123°07'0 0.0
2017-Oct-14 08:29N 49°19' W 123°07'0 0.0
2017-Oct-14 07:59N 49°19' W 123°07'0 0.1
2017-Oct-14 07:29N 49°19' W 123°07'0 0.1
2017-Oct-14 06:59N 49°19' W 123°07'0 0.0
2017-Oct-14 06:29N 49°19' W 123°07'0 0.0
2017-Oct-14 05:53N 49°19' W 123°07'0 0.0
2017-Oct-14 05:29N 49°19' W 123°07'0 0.0
2017-Oct-14 04:59N 49°19' W 123°07'0 0.0
2017-Oct-14 04:29N 49°19' W 123°07'0 0.0
2017-Oct-14 03:56N 49°19' W 123°07'0 0.0
2017-Oct-14 03:29N 49°19' W 123°07'0 0.0
2017-Oct-14 02:59N 49°19' W 123°07'0 0.0
2017-Oct-14 02:29N 49°19' W 123°07'0 0.0
2017-Oct-14 01:53N 49°19' W 123°07'0 0.0
2017-Oct-14 01:30N 49°19' W 123°07'0 0.0
2017-Oct-13 23:17N 49°19' W 123°07'0 0.0
2017-Oct-13 22:41N 49°19' W 123°07'0 0.0
2017-Oct-13 22:17N 49°19' W 123°07'0 0.0
2017-Oct-13 22:00N 49°19' W 123°07'0 0.0
2017-Oct-13 21:23N 49°19' W 123°07'0 0.0
2017-Oct-13 20:54N 49°19' W 123°07'0 0.0
2017-Oct-13 20:29N 49°19' W 123°07'0 0.0
2017-Oct-13 19:47N 49°19' W 123°07'0 0.0
2017-Oct-13 19:29N 49°19' W 123°07'0 0.0
2017-Oct-13 18:59N 49°19' W 123°07'0 0.0
2017-Oct-13 18:29N 49°19' W 123°07'0 0.0
2017-Oct-13 17:59N 49°19' W 123°07'0 0.0
2017-Oct-13 17:29N 49°19' W 123°07'0 0.0
2017-Oct-13 17:00N 49°19' W 123°07'0 0.0
2017-Oct-13 16:29N 49°19' W 123°07'0 0.0
2017-Oct-13 15:59N 49°19' W 123°07'0 0.0
2017-Oct-13 15:29N 49°19' W 123°07'0 0.0
2017-Oct-13 14:53N 49°19' W 123°07'0 0.0
2017-Oct-13 14:26N 49°19' W 123°07'0 0.0
2017-Oct-13 13:57N 49°19' W 123°07'1 1.4
2017-Oct-13 13:30N 49°19' W 123°08'5 9.8
2017-Oct-13 13:00N 49°18' W 123°16'611.4
2017-Oct-13 12:30N 49°13' W 123°19'713.3
2017-Oct-13 12:00N 49°06' W 123°20'612.3
2017-Oct-13 11:30N 49°01' W 123°15'713.0
2017-Oct-13 11:00N 48°56' W 123°08'612.9
2017-Oct-13 10:30N 48°52' W 123°02'510.3
2017-Oct-13 10:01N 48°47' W 123°01'612.5
2017-Oct-13 09:30N 48°43' W 123°09'510.5
2017-Oct-13 09:00N 48°40' W 123°15'611.8
2017-Oct-13 08:30N 48°34' W 123°13'612.4
2017-Oct-13 08:01N 48°28' W 123°10'510.7
2017-Oct-13 07:30N 48°23' W 123°14'612.0
2017-Oct-13 07:01N 48°22' W 123°23'3 5.3
2017-Oct-13 06:31N 48°19' W 123°25'5 9.1
2017-Oct-13 06:01N 48°15' W 123°27'4 8.6
2017-Oct-13 05:30N 48°13' W 123°33'5 9.8
2017-Oct-13 05:00N 48°13' W 123°41'510.9
2017-Oct-13 04:30N 48°13' W 123°49'611.1
2017-Oct-13 04:00N 48°14' W 123°57'611.4
2017-Oct-13 03:29N 48°17' W 124°05'511.3
2017-Oct-13 03:00N 48°19' W 124°13'611.8
2017-Oct-13 02:30N 48°21' W 124°21'612.0
2017-Oct-13 02:00N 48°24' W 124°29'611.9
2017-Oct-13 01:30N 48°26' W 124°37'612.6
2017-Oct-13 01:00N 48°29' W 124°46'714.1
2017-Oct-13 00:29N 48°29' W 124°57'713.5
2017-Oct-12 23:59N 48°24' W 125°04'1014.5
2017-Oct-12 23:17N 48°15' W 125°11'414.5
2017-Oct-12 23:00N 48°12' W 125°15'58811.5
2017-Oct-10 19:53N 38°23' W 125°07'812.2
2017-Oct-10 19:14N 38°16' W 125°03'412.2
2017-Oct-10 18:56N 38°12' W 125°02'512.2
2017-Oct-10 18:30N 38°07' W 124°59'612.5
2017-Oct-10 18:00N 38°02' W 124°56'612.4
2017-Oct-10 17:30N 37°56' W 124°53'712.5
2017-Oct-10 16:55N 37°49' W 124°50'712.7
2017-Oct-10 16:22N 37°43' W 124°47'512.8
2017-Oct-10 15:59N 37°38' W 124°44'612.7
2017-Oct-10 15:30N 37°32' W 124°42'612.5
2017-Oct-10 15:00N 37°26' W 124°39'1312.8
2017-Oct-10 14:00N 37°15' W 124°33'612.8
2017-Oct-10 13:30N 37°09' W 124°30'912.7
2017-Oct-10 12:50N 37°01' W 124°26'412.9
2017-Oct-10 12:30N 36°57' W 124°24'6012.7
2017-Oct-10 07:47N 36°09' W 123°40'412.9
2017-Oct-10 07:26N 36°05' W 123°36'1012.5
2017-Oct-10 06:40N 35°58' W 123°29'1212.1
2017-Oct-10 05:38N 35°48' W 123°19'312.2
2017-Oct-10 05:25N 35°46' W 123°17'512.2
2017-Oct-10 05:00N 35°42' W 123°13'612.4
2017-Oct-10 04:30N 35°37' W 123°08'612.7
2017-Oct-10 04:00N 35°32' W 123°03'612.7
2017-Oct-10 03:30N 35°28' W 122°58'3812.5
2017-Oct-10 00:30N 34°58' W 122°29'912.7
2017-Oct-09 23:46N 34°51' W 122°22'413.0
2017-Oct-09 23:27N 34°49' W 122°18'613.2
2017-Oct-09 23:00N 34°47' W 122°12'713.7
2017-Oct-09 22:30N 34°44' W 122°04'713.8
2017-Oct-09 22:00N 34°43' W 121°56'713.4
2017-Oct-09 21:30N 34°41' W 121°48'713.4
2017-Oct-09 21:00N 34°39' W 121°40'713.5
2017-Oct-09 20:31N 34°37' W 121°32'613.0
2017-Oct-09 20:01N 34°35' W 121°25'613.0
2017-Oct-09 19:30N 34°33' W 121°17'713.2
2017-Oct-09 19:00N 34°31' W 121°10'713.4
2017-Oct-09 18:30N 34°29' W 121°02'713.3
2017-Oct-09 18:00N 34°27' W 120°54'713.7
2017-Oct-09 17:30N 34°25' W 120°46'713.7
2017-Oct-09 17:00N 34°23' W 120°38'714.1
2017-Oct-09 16:30N 34°21' W 120°30'713.7
2017-Oct-09 16:01N 34°20' W 120°22'714.2
2017-Oct-09 15:30N 34°18' W 120°13'714.7
2017-Oct-09 15:00N 34°16' W 120°05'714.7
2017-Oct-09 14:30N 34°14' W 119°56'714.2
2017-Oct-09 14:00N 34°12' W 119°48'914.5
2017-Oct-09 13:22N 34°09' W 119°37'514.8
2017-Oct-09 13:00N 34°08' W 119°31'814.5
2017-Oct-09 12:25N 34°06' W 119°21'613.3
2017-Oct-09 11:56N 34°04' W 119°14'611.7
2017-Oct-09 11:27N 34°01' W 119°08'1211.6
2017-Oct-09 10:23N 33°55' W 118°55'511.9
2017-Oct-09 10:00N 33°52' W 118°50'611.9
2017-Oct-09 09:30N 33°49' W 118°44'611.3
2017-Oct-09 09:00N 33°47' W 118°38'611.5
2017-Oct-09 08:28N 33°44' W 118°32'611.7
2017-Oct-09 07:59N 33°41' W 118°26'611.0
2017-Oct-09 07:26N 33°38' W 118°19'511.3
2017-Oct-09 06:58N 33°39' W 118°13'5 9.7
2017-Oct-09 06:30N 33°43' W 118°11'1 2.4
2017-Oct-09 06:00N 33°44' W 118°10'0 0.0
2017-Oct-09 05:30N 33°44' W 118°10'0 0.0
2017-Oct-09 05:00N 33°44' W 118°10'0 0.0
2017-Oct-09 04:30N 33°44' W 118°10'0 0.0
2017-Oct-09 03:54N 33°44' W 118°10'0 0.0
2017-Oct-09 03:30N 33°44' W 118°10'0 0.0
2017-Oct-09 03:00N 33°44' W 118°10'0 0.1
2017-Oct-09 02:30N 33°44' W 118°10'0 0.0
2017-Oct-09 02:00N 33°44' W 118°10'0 0.0
2017-Oct-09 01:30N 33°44' W 118°10'0 0.0
2017-Oct-09 01:00N 33°44' W 118°10'0 0.0
2017-Oct-09 00:30N 33°44' W 118°10'0 0.1
2017-Oct-08 23:57N 33°44' W 118°10'0 0.2
2017-Oct-08 23:30N 33°44' W 118°10'3 6.1
2017-Oct-08 23:00N 33°41' W 118°11'510.4
2017-Oct-08 22:30N 33°36' W 118°10'511.0
2017-Oct-08 22:00N 33°31' W 118°08'611.1
2017-Oct-08 21:30N 33°26' W 118°05'611.4
2017-Oct-08 21:00N 33°20' W 118°03'611.9
2017-Oct-08 20:30N 33°15' W 118°00'611.9
2017-Oct-08 20:00N 33°09' W 117°59'611.7
2017-Oct-08 19:30N 33°03' W 117°56'611.8
2017-Oct-08 19:00N 32°58' W 117°53'611.8
2017-Oct-08 18:30N 32°53' W 117°51'713.8
2017-Oct-08 18:00N 32°46' W 117°48'714.5
2017-Oct-08 17:30N 32°39' W 117°45'714.5
2017-Oct-08 17:00N 32°33' W 117°41'714.7
2017-Oct-08 16:30N 32°27' W 117°36'714.5
2017-Oct-08 16:00N 32°21' W 117°30'713.8
2017-Oct-08 15:30N 32°21' W 117°22'713.6
2017-Oct-08 15:00N 32°21' W 117°14'611.6
2017-Oct-08 14:31N 32°20' W 117°07'  

Dump ship's entire track history